South Fork, PA

6:46 PM EDT on August 20, 2014 (GMT -0400)
Jackson Twp - Swigle Mountain Road | Change Station
CLOSE
Current Station
Personal Weather Station
Location: Mineral Point, PA
Elevation: 2277 ft
Nearby Weather Stations

Elev 2277 ft 40.40 °N, 78.80 °W | Updated 2 seconds ago

Partly Cloudy
Partly Cloudy
71.4 °F
Feels Like 72 °F
N
3.5
Wind Variable Wind from SW
Gusts 0.0 mph

Today
High -- | Low -- °F
--% Chance of Precip.
Yesterday
High -- | Low -- °F
Precip. -- in
6:30 AM 8:05 PM
Waning Crescent, 18% visible
Pressure 29.98 in
Visibility 10.0 miles
Clouds Few 4800 ft
Heat Index 72 °F
Dew Point 65 °F
Humidity 81%
Rainfall 0.35 in
Snow Depth Not available.
UV 2 out of 12
Pollen 8.50 out of 12
Air Quality Not available.
Flu Activity Not available.
METAR KJST 202154Z AUTO 27008KT 10SM FEW048 24/17 A3002 RMK AO2 SLP150 T02440172

More Conditions Fewer Conditions

Pressure 29.98 in
Visibility 10.0 miles
Clouds Few 4800 ft
Heat Index 72 °F
Dew Point 65 °F
Humidity 81%
Rainfall 0.35 in
Snow Depth Not available.
UV 2 out of 12
Pollen 8.50 out of 12
Air Quality Not available.
Flu Activity Not available.
METAR KJST 202154Z AUTO 27008KT 10SM FEW048 24/17 A3002 RMK AO2 SLP150 T02440172

More Conditions Fewer Conditions

Nowcast | as of 6:06 PM EDT on August 20, 2014

Widely scattered showers will continue to push slowly eastward across the area this evening. This activity will tend to diminish as the evening progresses.

×

10-Day Weather Forecast

Almanac

Astronomy

Aug. 20, 2014 Rise Set
Actual Time 6:30 AM EDT 8:05 PM EDT
Civil Twilight 6:02 AM EDT 8:34 PM EDT
Nautical Twilight 5:27 AM EDT 9:08 PM EDT
Astronomical Twilight 4:50 AM EDT 9:45 PM EDT
Moon 2:09 AM EDT 4:49 PM EDT
Length of Visible Light 14h 31m
Length of Day
13h 34m
Tomorrow will be 2m 26s shorter.
Waning Crescent, 18% of the Moon is Illuminated
Today
Waning Crescent
Aug 25
New
Sep 2
First Quarter
Sep 8
Full
Sep 15
Last Quarter

Today's Extremes

State Highs State Lows

Community

WunderPhotos

Upload Photos

1,745,791 photos uploaded!

Nearby

Snow Depth

Station Depth Elevation
No new snow has been reported.

Earthquake Activity

City Distance Mag. Time & Date
No recent earthquake activity has been reported nearby.
Minimum magnitude displayed is 2.5.

Coastal Water Temperatures

Place Temperature
No Stations Reporting

Nearby Weather Stations